sensor_id;sensor_type;location;lat;lon;timestamp;temperature;humidity
5009;DHT22;2523;51.058;6.922;2022-11-15T00:01:31;10.60;99.90
5009;DHT22;2523;51.058;6.922;2022-11-15T00:03:56;10.60;99.90
5009;DHT22;2523;51.058;6.922;2022-11-15T00:06:22;10.60;99.90
5009;DHT22;2523;51.058;6.922;2022-11-15T00:08:47;10.60;99.90
5009;DHT22;2523;51.058;6.922;2022-11-15T00:11:13;10.60;99.90
5009;DHT22;2523;51.058;6.922;2022-11-15T00:13:39;10.70;99.90
5009;DHT22;2523;51.058;6.922;2022-11-15T00:16:04;10.70;99.90
5009;DHT22;2523;51.058;6.922;2022-11-15T00:18:30;10.70;99.90
5009;DHT22;2523;51.058;6.922;2022-11-15T00:21:02;10.70;99.90
5009;DHT22;2523;51.058;6.922;2022-11-15T00:23:28;10.80;99.90
5009;DHT22;2523;51.058;6.922;2022-11-15T00:25:57;10.80;99.90
5009;DHT22;2523;51.058;6.922;2022-11-15T00:28:23;10.80;99.90
5009;DHT22;2523;51.058;6.922;2022-11-15T00:30:49;10.90;99.90
5009;DHT22;2523;51.058;6.922;2022-11-15T00:33:14;10.90;99.90
5009;DHT22;2523;51.058;6.922;2022-11-15T00:35:40;10.90;99.90
5009;DHT22;2523;51.058;6.922;2022-11-15T00:38:06;10.90;99.90
5009;DHT22;2523;51.058;6.922;2022-11-15T00:40:31;10.90;99.90
5009;DHT22;2523;51.058;6.922;2022-11-15T00:42:57;10.90;99.90
5009;DHT22;2523;51.058;6.922;2022-11-15T00:45:23;11.00;99.90
5009;DHT22;2523;51.058;6.922;2022-11-15T00:47:49;10.90;99.90
5009;DHT22;2523;51.058;6.922;2022-11-15T00:50:14;11.00;99.90
5009;DHT22;2523;51.058;6.922;2022-11-15T00:52:40;11.00;99.90
5009;DHT22;2523;51.058;6.922;2022-11-15T00:55:06;11.00;99.90
5009;DHT22;2523;51.058;6.922;2022-11-15T00:57:31;11.00;99.90
5009;DHT22;2523;51.058;6.922;2022-11-15T00:59:57;11.00;99.90
5009;DHT22;2523;51.058;6.922;2022-11-15T01:02:22;11.00;99.90
5009;DHT22;2523;51.058;6.922;2022-11-15T01:04:48;11.00;99.90
5009;DHT22;2523;51.058;6.922;2022-11-15T01:07:13;11.00;99.90
5009;DHT22;2523;51.058;6.922;2022-11-15T01:09:39;11.00;99.90
5009;DHT22;2523;51.058;6.922;2022-11-15T01:12:05;11.00;99.90
5009;DHT22;2523;51.058;6.922;2022-11-15T01:14:30;11.00;99.90
5009;DHT22;2523;51.058;6.922;2022-11-15T01:16:56;11.00;99.90
5009;DHT22;2523;51.058;6.922;2022-11-15T01:19:21;11.10;99.90
5009;DHT22;2523;51.058;6.922;2022-11-15T01:21:50;11.10;99.90
5009;DHT22;2523;51.058;6.922;2022-11-15T01:24:16;11.10;99.90
5009;DHT22;2523;51.058;6.922;2022-11-15T01:26:41;11.10;99.90
5009;DHT22;2523;51.058;6.922;2022-11-15T01:29:07;11.10;99.90
5009;DHT22;2523;51.058;6.922;2022-11-15T01:31:32;11.10;99.90
5009;DHT22;2523;51.058;6.922;2022-11-15T01:33:58;11.10;99.90
5009;DHT22;2523;51.058;6.922;2022-11-15T01:36:23;11.10;99.90
5009;DHT22;2523;51.058;6.922;2022-11-15T01:38:54;11.20;99.90
5009;DHT22;2523;51.058;6.922;2022-11-15T01:41:29;11.20;99.90
5009;DHT22;2523;51.058;6.922;2022-11-15T01:46:46;11.20;99.90
5009;DHT22;2523;51.058;6.922;2022-11-15T01:49:14;11.20;99.90
5009;DHT22;2523;51.058;6.922;2022-11-15T01:51:41;11.20;99.90
5009;DHT22;2523;51.058;6.922;2022-11-15T01:54:11;11.20;99.90
5009;DHT22;2523;51.058;6.922;2022-11-15T01:56:45;11.30;99.90
5009;DHT22;2523;51.058;6.922;2022-11-15T01:59:11;11.30;99.90
5009;DHT22;2523;51.058;6.922;2022-11-15T02:01:37;11.30;99.90
5009;DHT22;2523;51.058;6.922;2022-11-15T02:04:25;11.30;99.90
5009;DHT22;2523;51.058;6.922;2022-11-15T02:06:51;11.30;99.90
5009;DHT22;2523;51.058;6.922;2022-11-15T02:09:17;11.40;99.90
5009;DHT22;2523;51.058;6.922;2022-11-15T02:11:44;11.30;99.90
5009;DHT22;2523;51.058;6.922;2022-11-15T02:14:11;11.40;99.90
5009;DHT22;2523;51.058;6.922;2022-11-15T02:16:55;11.40;99.90
5009;DHT22;2523;51.058;6.922;2022-11-15T02:22:46;11.50;99.90
5009;DHT22;2523;51.058;6.922;2022-11-15T02:25:28;11.50;99.90
5009;DHT22;2523;51.058;6.922;2022-11-15T02:30:58;11.50;99.90
5009;DHT22;2523;51.058;6.922;2022-11-15T02:36:04;11.50;99.90
5009;DHT22;2523;51.058;6.922;2022-11-15T02:38:43;11.60;99.90
5009;DHT22;2523;51.058;6.922;2022-11-15T02:41:16;11.60;99.90
5009;DHT22;2523;51.058;6.922;2022-11-15T02:43:49;11.60;99.90
5009;DHT22;2523;51.058;6.922;2022-11-15T02:46:45;11.60;99.90
5009;DHT22;2523;51.058;6.922;2022-11-15T02:49:34;11.70;99.90
5009;DHT22;2523;51.058;6.922;2022-11-15T02:52:00;11.70;99.90
5009;DHT22;2523;51.058;6.922;2022-11-15T02:54:29;11.70;99.90
5009;DHT22;2523;51.058;6.922;2022-11-15T02:57:04;11.70;99.90
5009;DHT22;2523;51.058;6.922;2022-11-15T03:02:12;11.70;99.90
5009;DHT22;2523;51.058;6.922;2022-11-15T03:04:54;11.60;99.90
5009;DHT22;2523;51.058;6.922;2022-11-15T03:18:47;11.70;99.90
5009;DHT22;2523;51.058;6.922;2022-11-15T03:21:14;11.70;99.90
5009;DHT22;2523;51.058;6.922;2022-11-15T03:23:41;11.60;99.90
5009;DHT22;2523;51.058;6.922;2022-11-15T03:26:10;11.60;99.90
5009;DHT22;2523;51.058;6.922;2022-11-15T03:28:51;11.60;99.90
5009;DHT22;2523;51.058;6.922;2022-11-15T03:31:19;11.60;99.90
5009;DHT22;2523;51.058;6.922;2022-11-15T03:34:08;11.60;99.90
5009;DHT22;2523;51.058;6.922;2022-11-15T03:36:35;11.60;99.90
5009;DHT22;2523;51.058;6.922;2022-11-15T03:39:06;11.60;99.90
5009;DHT22;2523;51.058;6.922;2022-11-15T03:41:48;11.60;99.90
5009;DHT22;2523;51.058;6.922;2022-11-15T03:47:36;11.60;99.90
5009;DHT22;2523;51.058;6.922;2022-11-15T03:50:12;11.60;99.90
5009;DHT22;2523;51.058;6.922;2022-11-15T03:52:39;11.60;99.90
5009;DHT22;2523;51.058;6.922;2022-11-15T03:55:08;11.60;99.90
5009;DHT22;2523;51.058;6.922;2022-11-15T03:57:35;11.60;99.90
5009;DHT22;2523;51.058;6.922;2022-11-15T04:00:01;11.60;99.90
5009;DHT22;2523;51.058;6.922;2022-11-15T04:02:26;11.70;99.90
5009;DHT22;2523;51.058;6.922;2022-11-15T04:04:52;11.70;99.90
5009;DHT22;2523;51.058;6.922;2022-11-15T04:07:17;11.70;99.90
5009;DHT22;2523;51.058;6.922;2022-11-15T04:09:43;11.70;99.90
5009;DHT22;2523;51.058;6.922;2022-11-15T04:12:27;11.70;99.90
5009;DHT22;2523;51.058;6.922;2022-11-15T04:15:00;11.70;99.90
5009;DHT22;2523;51.058;6.922;2022-11-15T04:17:42;11.70;99.90
5009;DHT22;2523;51.058;6.922;2022-11-15T04:20:30;11.70;99.90
5009;DHT22;2523;51.058;6.922;2022-11-15T04:23:18;11.70;99.90
5009;DHT22;2523;51.058;6.922;2022-11-15T04:26:05;11.70;99.90
5009;DHT22;2523;51.058;6.922;2022-11-15T04:28:31;11.70;99.90
5009;DHT22;2523;51.058;6.922;2022-11-15T04:30:57;11.80;99.90
5009;DHT22;2523;51.058;6.922;2022-11-15T04:33:22;11.80;99.90
5009;DHT22;2523;51.058;6.922;2022-11-15T04:35:48;11.80;99.90
5009;DHT22;2523;51.058;6.922;2022-11-15T04:38:33;11.80;99.90
5009;DHT22;2523;51.058;6.922;2022-11-15T04:40:59;11.80;99.90
5009;DHT22;2523;51.058;6.922;2022-11-15T04:43:25;11.80;99.90
5009;DHT22;2523;51.058;6.922;2022-11-15T04:45:50;11.80;99.90
5009;DHT22;2523;51.058;6.922;2022-11-15T04:48:16;11.80;99.90
5009;DHT22;2523;51.058;6.922;2022-11-15T04:50:41;11.80;99.90
5009;DHT22;2523;51.058;6.922;2022-11-15T04:53:07;11.80;99.90
5009;DHT22;2523;51.058;6.922;2022-11-15T04:55:32;11.80;99.90
5009;DHT22;2523;51.058;6.922;2022-11-15T04:57:58;11.80;99.90
5009;DHT22;2523;51.058;6.922;2022-11-15T05:00:25;11.90;99.90
5009;DHT22;2523;51.058;6.922;2022-11-15T05:02:51;11.90;5.90
5009;DHT22;2523;51.058;6.922;2022-11-15T05:05:45;11.80;1.00
5009;DHT22;2523;51.058;6.922;2022-11-15T05:08:11;11.90;99.90
5009;DHT22;2523;51.058;6.922;2022-11-15T05:10:36;11.90;99.90
5009;DHT22;2523;51.058;6.922;2022-11-15T05:13:02;11.90;99.90
5009;DHT22;2523;51.058;6.922;2022-11-15T05:15:27;11.90;99.90
5009;DHT22;2523;51.058;6.922;2022-11-15T05:17:58;11.90;99.90
5009;DHT22;2523;51.058;6.922;2022-11-15T05:20:24;11.90;99.90
5009;DHT22;2523;51.058;6.922;2022-11-15T05:22:50;11.80;99.90
5009;DHT22;2523;51.058;6.922;2022-11-15T05:25:15;11.80;99.90
5009;DHT22;2523;51.058;6.922;2022-11-15T05:27:41;11.80;99.90
5009;DHT22;2523;51.058;6.922;2022-11-15T05:30:06;11.80;99.90
5009;DHT22;2523;51.058;6.922;2022-11-15T05:32:32;11.90;99.90
5009;DHT22;2523;51.058;6.922;2022-11-15T05:34:58;12.00;99.90
5009;DHT22;2523;51.058;6.922;2022-11-15T05:37:23;12.00;99.90
5009;DHT22;2523;51.058;6.922;2022-11-15T05:39:49;12.00;99.90
5009;DHT22;2523;51.058;6.922;2022-11-15T05:42:15;12.00;99.90
5009;DHT22;2523;51.058;6.922;2022-11-15T05:44:44;12.00;99.90
5009;DHT22;2523;51.058;6.922;2022-11-15T05:47:13;12.00;99.90
5009;DHT22;2523;51.058;6.922;2022-11-15T05:49:42;11.90;99.90
5009;DHT22;2523;51.058;6.922;2022-11-15T05:52:12;12.00;99.90
5009;DHT22;2523;51.058;6.922;2022-11-15T05:54:40;12.00;99.90
5009;DHT22;2523;51.058;6.922;2022-11-15T05:57:06;11.90;99.90
5009;DHT22;2523;51.058;6.922;2022-11-15T05:59:32;11.90;99.90
5009;DHT22;2523;51.058;6.922;2022-11-15T06:01:58;11.90;99.90
5009;DHT22;2523;51.058;6.922;2022-11-15T06:04:24;11.90;99.90
5009;DHT22;2523;51.058;6.922;2022-11-15T06:06:50;12.00;99.90
5009;DHT22;2523;51.058;6.922;2022-11-15T06:09:15;11.90;99.90
5009;DHT22;2523;51.058;6.922;2022-11-15T06:11:41;11.90;1.00
5009;DHT22;2523;51.058;6.922;2022-11-15T06:14:07;11.90;1.00
5009;DHT22;2523;51.058;6.922;2022-11-15T06:16:32;11.80;99.90
5009;DHT22;2523;51.058;6.922;2022-11-15T06:18:58;11.70;99.90
5009;DHT22;2523;51.058;6.922;2022-11-15T06:21:23;11.70;99.90
5009;DHT22;2523;51.058;6.922;2022-11-15T06:23:49;11.60;99.90
5009;DHT22;2523;51.058;6.922;2022-11-15T06:26:14;11.50;99.90
5009;DHT22;2523;51.058;6.922;2022-11-15T06:28:40;11.40;99.90
5009;DHT22;2523;51.058;6.922;2022-11-15T06:31:10;11.40;99.90
5009;DHT22;2523;51.058;6.922;2022-11-15T06:33:37;11.30;99.90
5009;DHT22;2523;51.058;6.922;2022-11-15T06:36:05;11.30;99.90
5009;DHT22;2523;51.058;6.922;2022-11-15T06:38:31;11.30;99.90
5009;DHT22;2523;51.058;6.922;2022-11-15T06:41:08;11.30;99.90
5009;DHT22;2523;51.058;6.922;2022-11-15T06:43:35;11.20;99.90
5009;DHT22;2523;51.058;6.922;2022-11-15T06:46:02;11.20;99.90
5009;DHT22;2523;51.058;6.922;2022-11-15T06:48:28;11.10;99.90
5009;DHT22;2523;51.058;6.922;2022-11-15T06:50:56;11.10;99.90
5009;DHT22;2523;51.058;6.922;2022-11-15T06:53:22;11.10;99.90
5009;DHT22;2523;51.058;6.922;2022-11-15T06:55:48;11.10;99.90
5009;DHT22;2523;51.058;6.922;2022-11-15T06:58:14;11.10;99.90
5009;DHT22;2523;51.058;6.922;2022-11-15T07:00:40;11.10;99.90
5009;DHT22;2523;51.058;6.922;2022-11-15T07:03:06;11.10;99.90
5009;DHT22;2523;51.058;6.922;2022-11-15T07:05:33;11.20;99.90
5009;DHT22;2523;51.058;6.922;2022-11-15T07:07:59;11.20;99.90
5009;DHT22;2523;51.058;6.922;2022-11-15T07:10:25;11.20;99.90
5009;DHT22;2523;51.058;6.922;2022-11-15T07:12:52;11.20;99.90
5009;DHT22;2523;51.058;6.922;2022-11-15T07:15:19;11.20;99.90
5009;DHT22;2523;51.058;6.922;2022-11-15T07:17:45;11.20;99.90
5009;DHT22;2523;51.058;6.922;2022-11-15T07:20:11;11.20;99.90
5009;DHT22;2523;51.058;6.922;2022-11-15T07:22:39;11.10;1.00
5009;DHT22;2523;51.058;6.922;2022-11-15T07:25:05;11.10;1.00
5009;DHT22;2523;51.058;6.922;2022-11-15T07:27:30;11.10;1.00
5009;DHT22;2523;51.058;6.922;2022-11-15T07:29:57;11.10;1.00
5009;DHT22;2523;51.058;6.922;2022-11-15T07:32:23;11.10;1.00
5009;DHT22;2523;51.058;6.922;2022-11-15T07:34:48;11.10;99.90
5009;DHT22;2523;51.058;6.922;2022-11-15T07:37:15;11.10;5.00
5009;DHT22;2523;51.058;6.922;2022-11-15T07:39:42;11.20;99.90
5009;DHT22;2523;51.058;6.922;2022-11-15T07:42:08;11.20;99.90
5009;DHT22;2523;51.058;6.922;2022-11-15T07:44:52;11.20;99.90
5009;DHT22;2523;51.058;6.922;2022-11-15T07:47:18;11.20;1.00
5009;DHT22;2523;51.058;6.922;2022-11-15T07:49:43;11.20;1.00
5009;DHT22;2523;51.058;6.922;2022-11-15T07:52:09;11.30;1.00
5009;DHT22;2523;51.058;6.922;2022-11-15T07:54:34;11.30;1.00
5009;DHT22;2523;51.058;6.922;2022-11-15T07:57:00;11.40;1.00
5009;DHT22;2523;51.058;6.922;2022-11-15T07:59:26;11.30;99.90
5009;DHT22;2523;51.058;6.922;2022-11-15T08:01:51;11.40;1.00
5009;DHT22;2523;51.058;6.922;2022-11-15T08:04:17;11.40;99.90
5009;DHT22;2523;51.058;6.922;2022-11-15T08:06:42;11.50;1.00
5009;DHT22;2523;51.058;6.922;2022-11-15T08:09:08;11.50;1.00
5009;DHT22;2523;51.058;6.922;2022-11-15T08:11:33;11.50;99.90
5009;DHT22;2523;51.058;6.922;2022-11-15T08:13:59;11.50;99.90
5009;DHT22;2523;51.058;6.922;2022-11-15T08:16:24;11.50;99.90
5009;DHT22;2523;51.058;6.922;2022-11-15T08:18:50;11.60;99.90
5009;DHT22;2523;51.058;6.922;2022-11-15T08:21:19;11.60;99.90
5009;DHT22;2523;51.058;6.922;2022-11-15T08:23:45;11.60;99.90
5009;DHT22;2523;51.058;6.922;2022-11-15T08:26:11;11.60;99.90
5009;DHT22;2523;51.058;6.922;2022-11-15T08:28:37;11.70;99.90
5009;DHT22;2523;51.058;6.922;2022-11-15T08:31:03;11.80;99.90
5009;DHT22;2523;51.058;6.922;2022-11-15T08:33:29;11.80;99.90
5009;DHT22;2523;51.058;6.922;2022-11-15T08:35:59;11.80;99.90
5009;DHT22;2523;51.058;6.922;2022-11-15T08:38:25;11.80;99.90
5009;DHT22;2523;51.058;6.922;2022-11-15T08:40:52;11.90;99.90
5009;DHT22;2523;51.058;6.922;2022-11-15T08:43:18;12.00;99.90
5009;DHT22;2523;51.058;6.922;2022-11-15T08:45:44;12.10;99.90
5009;DHT22;2523;51.058;6.922;2022-11-15T08:48:10;12.10;99.90
5009;DHT22;2523;51.058;6.922;2022-11-15T08:50:36;12.30;99.90
5009;DHT22;2523;51.058;6.922;2022-11-15T08:53:06;12.50;99.90
5009;DHT22;2523;51.058;6.922;2022-11-15T08:55:32;12.60;99.90
5009;DHT22;2523;51.058;6.922;2022-11-15T08:58:01;12.60;99.90
5009;DHT22;2523;51.058;6.922;2022-11-15T09:00:26;12.70;99.90
5009;DHT22;2523;51.058;6.922;2022-11-15T09:02:52;12.70;99.90
5009;DHT22;2523;51.058;6.922;2022-11-15T09:05:17;12.70;99.90
5009;DHT22;2523;51.058;6.922;2022-11-15T09:07:43;12.70;99.90
5009;DHT22;2523;51.058;6.922;2022-11-15T09:10:09;12.70;99.90
5009;DHT22;2523;51.058;6.922;2022-11-15T09:12:35;12.70;99.90
5009;DHT22;2523;51.058;6.922;2022-11-15T09:15:00;12.80;99.90
5009;DHT22;2523;51.058;6.922;2022-11-15T09:17:26;12.90;99.90
5009;DHT22;2523;51.058;6.922;2022-11-15T09:19:51;13.20;99.90
5009;DHT22;2523;51.058;6.922;2022-11-15T09:22:17;13.60;99.90
5009;DHT22;2523;51.058;6.922;2022-11-15T09:24:43;14.30;99.90
5009;DHT22;2523;51.058;6.922;2022-11-15T09:27:08;15.30;99.90
5009;DHT22;2523;51.058;6.922;2022-11-15T09:29:34;16.20;99.90
5009;DHT22;2523;51.058;6.922;2022-11-15T09:31:59;16.70;99.90
5009;DHT22;2523;51.058;6.922;2022-11-15T09:34:25;17.30;99.90
5009;DHT22;2523;51.058;6.922;2022-11-15T09:36:51;18.00;99.90
5009;DHT22;2523;51.058;6.922;2022-11-15T09:39:16;17.70;96.10
5009;DHT22;2523;51.058;6.922;2022-11-15T09:45:33;17.80;99.90
5009;DHT22;2523;51.058;6.922;2022-11-15T09:50:42;18.50;94.30
5009;DHT22;2523;51.058;6.922;2022-11-15T09:53:14;19.10;66.60
5009;DHT22;2523;51.058;6.922;2022-11-15T09:56:03;19.20;51.50
5009;DHT22;2523;51.058;6.922;2022-11-15T09:58:43;19.30;55.90
5009;DHT22;2523;51.058;6.922;2022-11-15T10:01:19;19.10;62.90
5009;DHT22;2523;51.058;6.922;2022-11-15T10:03:48;18.50;67.80
5009;DHT22;2523;51.058;6.922;2022-11-15T10:06:23;18.30;77.60
5009;DHT22;2523;51.058;6.922;2022-11-15T10:09:00;17.90;73.00
5009;DHT22;2523;51.058;6.922;2022-11-15T10:11:35;18.10;83.70
5009;DHT22;2523;51.058;6.922;2022-11-15T10:14:12;18.00;84.50
5009;DHT22;2523;51.058;6.922;2022-11-15T10:16:55;18.40;62.60
5009;DHT22;2523;51.058;6.922;2022-11-15T10:19:53;18.90;55.30
5009;DHT22;2523;51.058;6.922;2022-11-15T10:22:29;19.20;56.60
5009;DHT22;2523;51.058;6.922;2022-11-15T10:25:21;19.50;48.70
5009;DHT22;2523;51.058;6.922;2022-11-15T10:28:05;19.70;49.90
5009;DHT22;2523;51.058;6.922;2022-11-15T10:30:37;20.60;43.00
5009;DHT22;2523;51.058;6.922;2022-11-15T10:35:44;21.90;32.50
5009;DHT22;2523;51.058;6.922;2022-11-15T10:38:11;22.10;30.70
5009;DHT22;2523;51.058;6.922;2022-11-15T10:40:39;23.30;29.10
5009;DHT22;2523;51.058;6.922;2022-11-15T10:43:15;23.10;28.20
5009;DHT22;2523;51.058;6.922;2022-11-15T10:45:42;23.60;26.70
5009;DHT22;2523;51.058;6.922;2022-11-15T10:48:27;23.30;26.60
5009;DHT22;2523;51.058;6.922;2022-11-15T10:50:54;22.80;25.50
5009;DHT22;2523;51.058;6.922;2022-11-15T10:53:41;23.20;25.70
5009;DHT22;2523;51.058;6.922;2022-11-15T10:56:13;23.30;24.90
5009;DHT22;2523;51.058;6.922;2022-11-15T10:58:49;23.60;23.00
5009;DHT22;2523;51.058;6.922;2022-11-15T11:01:27;23.70;22.70
5009;DHT22;2523;51.058;6.922;2022-11-15T11:04:03;23.90;22.50
5009;DHT22;2523;51.058;6.922;2022-11-15T11:06:30;24.60;23.10
5009;DHT22;2523;51.058;6.922;2022-11-15T11:09:00;25.50;20.70
5009;DHT22;2523;51.058;6.922;2022-11-15T11:11:45;25.30;20.20
5009;DHT22;2523;51.058;6.922;2022-11-15T11:14:23;25.50;19.90
5009;DHT22;2523;51.058;6.922;2022-11-15T11:22:30;26.10;18.30
5009;DHT22;2523;51.058;6.922;2022-11-15T11:30:57;25.70;16.20
5009;DHT22;2523;51.058;6.922;2022-11-15T11:33:30;25.30;18.00
5009;DHT22;2523;51.058;6.922;2022-11-15T11:39:00;22.10;20.00
5009;DHT22;2523;51.058;6.922;2022-11-15T11:41:43;21.70;21.30
5009;DHT22;2523;51.058;6.922;2022-11-15T11:47:31;19.90;24.30
5009;DHT22;2523;51.058;6.922;2022-11-15T11:49:52;19.20;24.50
5009;DHT22;2523;51.058;6.922;2022-11-15T11:52:33;18.30;26.70
5009;DHT22;2523;51.058;6.922;2022-11-15T11:55:40;17.60;28.30
5009;DHT22;2523;51.058;6.922;2022-11-15T12:01:11;17.00;33.70
5009;DHT22;2523;51.058;6.922;2022-11-15T12:03:57;16.90;35.80
5009;DHT22;2523;51.058;6.922;2022-11-15T12:06:58;16.70;39.30
5009;DHT22;2523;51.058;6.922;2022-11-15T12:12:13;16.80;53.80
5009;DHT22;2523;51.058;6.922;2022-11-15T12:14:50;16.90;55.30
5009;DHT22;2523;51.058;6.922;2022-11-15T12:17:21;16.80;51.70
5009;DHT22;2523;51.058;6.922;2022-11-15T12:19:48;16.90;49.00
5009;DHT22;2523;51.058;6.922;2022-11-15T12:22:24;16.90;52.00
5009;DHT22;2523;51.058;6.922;2022-11-15T12:24:57;16.70;51.60
5009;DHT22;2523;51.058;6.922;2022-11-15T12:27:57;16.50;57.90
5009;DHT22;2523;51.058;6.922;2022-11-15T12:30:27;16.20;57.50
5009;DHT22;2523;51.058;6.922;2022-11-15T12:32:58;16.20;65.50
5009;DHT22;2523;51.058;6.922;2022-11-15T12:38:03;16.40;88.50
5009;DHT22;2523;51.058;6.922;2022-11-15T12:40:37;16.40;81.20
5009;DHT22;2523;51.058;6.922;2022-11-15T12:45:45;16.30;80.80
5009;DHT22;2523;51.058;6.922;2022-11-15T12:58:56;15.70;99.90
5009;DHT22;2523;51.058;6.922;2022-11-15T13:06:54;15.40;99.90
5009;DHT22;2523;51.058;6.922;2022-11-15T13:12:02;15.40;99.90
5009;DHT22;2523;51.058;6.922;2022-11-15T13:14:58;15.30;99.90
5009;DHT22;2523;51.058;6.922;2022-11-15T13:30:50;14.90;99.90
5009;DHT22;2523;51.058;6.922;2022-11-15T13:33:25;14.90;99.90
5009;DHT22;2523;51.058;6.922;2022-11-15T13:35:54;14.80;99.90
5009;DHT22;2523;51.058;6.922;2022-11-15T13:38:29;14.90;99.90
5009;DHT22;2523;51.058;6.922;2022-11-15T13:40:56;14.90;99.90
5009;DHT22;2523;51.058;6.922;2022-11-15T13:46:16;15.00;99.90
5009;DHT22;2523;51.058;6.922;2022-11-15T13:48:44;15.00;99.90
5009;DHT22;2523;51.058;6.922;2022-11-15T13:51:17;14.80;99.90
5009;DHT22;2523;51.058;6.922;2022-11-15T13:53:47;14.80;99.90
5009;DHT22;2523;51.058;6.922;2022-11-15T13:56:17;14.70;99.90
5009;DHT22;2523;51.058;6.922;2022-11-15T13:58:44;14.70;99.90
5009;DHT22;2523;51.058;6.922;2022-11-15T14:01:18;14.60;99.90
5009;DHT22;2523;51.058;6.922;2022-11-15T14:03:58;14.50;99.90
5009;DHT22;2523;51.058;6.922;2022-11-15T14:06:26;14.50;99.90
5009;DHT22;2523;51.058;6.922;2022-11-15T14:09:03;14.40;99.90
5009;DHT22;2523;51.058;6.922;2022-11-15T14:11:30;14.40;99.90
5009;DHT22;2523;51.058;6.922;2022-11-15T14:14:22;14.40;99.90
5009;DHT22;2523;51.058;6.922;2022-11-15T14:16:52;14.40;99.90
5009;DHT22;2523;51.058;6.922;2022-11-15T14:22:13;14.40;99.90
5009;DHT22;2523;51.058;6.922;2022-11-15T14:24:39;14.30;99.90
5009;DHT22;2523;51.058;6.922;2022-11-15T14:27:26;14.30;99.90
5009;DHT22;2523;51.058;6.922;2022-11-15T14:29:53;14.20;99.90
5009;DHT22;2523;51.058;6.922;2022-11-15T14:32:27;14.20;99.90
5009;DHT22;2523;51.058;6.922;2022-11-15T14:34:59;14.20;99.90
5009;DHT22;2523;51.058;6.922;2022-11-15T14:37:28;14.10;99.90
5009;DHT22;2523;51.058;6.922;2022-11-15T14:39:54;14.10;99.90
5009;DHT22;2523;51.058;6.922;2022-11-15T14:42:24;14.10;99.90
5009;DHT22;2523;51.058;6.922;2022-11-15T14:44:50;14.10;99.90
5009;DHT22;2523;51.058;6.922;2022-11-15T14:47:16;14.00;99.90
5009;DHT22;2523;51.058;6.922;2022-11-15T14:49:42;14.00;99.90
5009;DHT22;2523;51.058;6.922;2022-11-15T14:52:27;14.00;99.90
5009;DHT22;2523;51.058;6.922;2022-11-15T14:54:54;14.00;99.90
5009;DHT22;2523;51.058;6.922;2022-11-15T14:57:20;14.00;99.90
5009;DHT22;2523;51.058;6.922;2022-11-15T14:59:46;14.00;99.90
5009;DHT22;2523;51.058;6.922;2022-11-15T15:04:41;14.00;99.90
5009;DHT22;2523;51.058;6.922;2022-11-15T15:07:07;14.00;99.90
5009;DHT22;2523;51.058;6.922;2022-11-15T15:09:32;13.90;99.90
5009;DHT22;2523;51.058;6.922;2022-11-15T15:11:58;13.90;99.90
5009;DHT22;2523;51.058;6.922;2022-11-15T15:14:23;13.90;99.90
5009;DHT22;2523;51.058;6.922;2022-11-15T15:16:49;13.90;99.90
5009;DHT22;2523;51.058;6.922;2022-11-15T15:19:14;13.90;99.90
5009;DHT22;2523;51.058;6.922;2022-11-15T15:21:40;13.90;99.90
5009;DHT22;2523;51.058;6.922;2022-11-15T15:24:05;13.90;99.90
5009;DHT22;2523;51.058;6.922;2022-11-15T15:26:31;13.80;99.90
5009;DHT22;2523;51.058;6.922;2022-11-15T15:29:01;13.80;99.90
5009;DHT22;2523;51.058;6.922;2022-11-15T15:31:27;13.80;99.90
5009;DHT22;2523;51.058;6.922;2022-11-15T15:33:52;13.80;99.90
5009;DHT22;2523;51.058;6.922;2022-11-15T15:36:18;13.80;99.90
5009;DHT22;2523;51.058;6.922;2022-11-15T15:38:44;13.80;99.90
5009;DHT22;2523;51.058;6.922;2022-11-15T15:41:12;13.80;99.90
5009;DHT22;2523;51.058;6.922;2022-11-15T15:43:38;13.70;99.90
5009;DHT22;2523;51.058;6.922;2022-11-15T15:46:12;13.70;99.90
5009;DHT22;2523;51.058;6.922;2022-11-15T15:48:39;13.70;99.90
5009;DHT22;2523;51.058;6.922;2022-11-15T15:51:05;13.70;99.90
5009;DHT22;2523;51.058;6.922;2022-11-15T15:53:31;13.70;99.90
5009;DHT22;2523;51.058;6.922;2022-11-15T15:55:57;13.70;99.90
5009;DHT22;2523;51.058;6.922;2022-11-15T15:58:22;13.70;99.90
5009;DHT22;2523;51.058;6.922;2022-11-15T16:00:48;13.70;99.90
5009;DHT22;2523;51.058;6.922;2022-11-15T16:03:13;13.60;99.90
5009;DHT22;2523;51.058;6.922;2022-11-15T16:05:39;13.60;99.90
5009;DHT22;2523;51.058;6.922;2022-11-15T16:08:04;13.60;99.90
5009;DHT22;2523;51.058;6.922;2022-11-15T16:10:33;13.60;99.90
5009;DHT22;2523;51.058;6.922;2022-11-15T16:12:59;13.60;99.90
5009;DHT22;2523;51.058;6.922;2022-11-15T16:15:27;13.50;99.90
5009;DHT22;2523;51.058;6.922;2022-11-15T16:17:56;13.60;99.90
5009;DHT22;2523;51.058;6.922;2022-11-15T16:20:38;13.60;99.90
5009;DHT22;2523;51.058;6.922;2022-11-15T16:23:06;13.70;99.90
5009;DHT22;2523;51.058;6.922;2022-11-15T16:25:41;13.70;99.90
5009;DHT22;2523;51.058;6.922;2022-11-15T16:30:46;13.80;99.90
5009;DHT22;2523;51.058;6.922;2022-11-15T16:33:12;13.70;99.90
5009;DHT22;2523;51.058;6.922;2022-11-15T16:35:37;13.70;99.90
5009;DHT22;2523;51.058;6.922;2022-11-15T16:38:03;13.70;99.90
5009;DHT22;2523;51.058;6.922;2022-11-15T16:40:33;13.60;99.90
5009;DHT22;2523;51.058;6.922;2022-11-15T16:42:59;13.60;99.90
5009;DHT22;2523;51.058;6.922;2022-11-15T16:45:27;13.60;99.90
5009;DHT22;2523;51.058;6.922;2022-11-15T16:47:54;13.60;99.90
5009;DHT22;2523;51.058;6.922;2022-11-15T16:50:31;13.60;99.90
5009;DHT22;2523;51.058;6.922;2022-11-15T16:52:59;13.60;99.90
5009;DHT22;2523;51.058;6.922;2022-11-15T16:55:27;13.60;99.90
5009;DHT22;2523;51.058;6.922;2022-11-15T16:57:53;13.60;99.90
5009;DHT22;2523;51.058;6.922;2022-11-15T17:00:20;13.60;99.90
5009;DHT22;2523;51.058;6.922;2022-11-15T17:02:47;13.60;99.90
5009;DHT22;2523;51.058;6.922;2022-11-15T17:05:14;13.60;99.90
5009;DHT22;2523;51.058;6.922;2022-11-15T17:07:40;13.60;99.90
5009;DHT22;2523;51.058;6.922;2022-11-15T17:10:07;13.70;99.90
5009;DHT22;2523;51.058;6.922;2022-11-15T17:12:34;13.60;99.90
5009;DHT22;2523;51.058;6.922;2022-11-15T17:15:00;13.60;99.90
5009;DHT22;2523;51.058;6.922;2022-11-15T17:17:25;13.60;99.90
5009;DHT22;2523;51.058;6.922;2022-11-15T17:19:51;13.60;99.90
5009;DHT22;2523;51.058;6.922;2022-11-15T17:22:18;13.60;99.90
5009;DHT22;2523;51.058;6.922;2022-11-15T17:24:43;13.60;99.90
5009;DHT22;2523;51.058;6.922;2022-11-15T17:27:09;13.50;99.90
5009;DHT22;2523;51.058;6.922;2022-11-15T17:29:35;13.50;99.90
5009;DHT22;2523;51.058;6.922;2022-11-15T17:32:00;13.60;99.90
5009;DHT22;2523;51.058;6.922;2022-11-15T17:34:26;13.60;99.90
5009;DHT22;2523;51.058;6.922;2022-11-15T17:36:51;13.60;99.90
5009;DHT22;2523;51.058;6.922;2022-11-15T17:39:17;13.60;99.90
5009;DHT22;2523;51.058;6.922;2022-11-15T17:41:47;13.60;99.90
5009;DHT22;2523;51.058;6.922;2022-11-15T17:44:13;13.50;99.90
5009;DHT22;2523;51.058;6.922;2022-11-15T17:46:38;13.50;99.90
5009;DHT22;2523;51.058;6.922;2022-11-15T17:49:05;13.50;99.90
5009;DHT22;2523;51.058;6.922;2022-11-15T17:51:31;13.50;99.90
5009;DHT22;2523;51.058;6.922;2022-11-15T17:53:57;13.50;99.90
5009;DHT22;2523;51.058;6.922;2022-11-15T17:56:24;13.40;99.90
5009;DHT22;2523;51.058;6.922;2022-11-15T17:58:53;13.40;99.90
5009;DHT22;2523;51.058;6.922;2022-11-15T18:03:46;13.30;99.90
5009;DHT22;2523;51.058;6.922;2022-11-15T18:06:12;13.30;99.90
5009;DHT22;2523;51.058;6.922;2022-11-15T18:08:40;13.20;99.90